This is the latest recevied weather packets stored in our database for station/object KD4WLE. If no packets are shown the sender has not sent any weather packets the latest 10 day(s).
| Time | Temp. | Humidity | Pressure | Rain* | Wind** | Luminosity | Snow |
|---|---|---|---|---|---|---|---|
| 1777908079 | 25.56° C | 63% | 1018.7 hPa | 0 mm | - | 182 W/m² | - |
| 1777907775 | 23.89° C | 66% | 1018.6 hPa | 0 mm | - | 824 W/m² | - |
| 1777907469 | 23.89° C | 70% | 1018.9 hPa | 0 mm | - | 152 W/m² | - |
| 1777907167 | 23.89° C | 67% | 1018.5 hPa | 0 mm | - | 148 W/m² | - |
| 1777906864 | 23.33° C | 68% | 1018.8 hPa | 0 mm | - | 222 W/m² | - |
| 1777906561 | 23.89° C | 67% | 1018.7 hPa | 0 mm | - | 150 W/m² | - |
| 1777906256 | 25° C | 66% | 1018.6 hPa | 0 mm | - | 167 W/m² | - |
| 1777905953 | 23.89° C | 68% | 1018.9 hPa | 0 mm | - | 229 W/m² | - |
| 1777905650 | 24.44° C | 67% | 1018.6 hPa | 0 mm | - | 176 W/m² | - |
| 1777905347 | 25° C | 65% | 1018.7 hPa | 0 mm | - | 654 W/m² | - |
| 1777905045 | 24.44° C | 66% | 1018.3 hPa | 0 mm | - | 687 W/m² | - |
| 1777904742 | 23.89° C | 69% | 1018.2 hPa | 0 mm | - | 620 W/m² | - |
| 1777904439 | 24.44° C | 68% | 1018.4 hPa | 0 mm | - | 443 W/m² | - |
| 1777904135 | 22.78° C | 71% | 1018.4 hPa | 0 mm | - | 209 W/m² | - |
| 1777903832 | 22.78° C | 71% | 1018.3 hPa | 0 mm | - | 113 W/m² | - |
| 1777903529 | 23.33° C | 71% | 1018.1 hPa | 0 mm | - | 141 W/m² | - |
| 1777903225 | 23.33° C | 71% | 1018.3 hPa | 0 mm | - | 166 W/m² | - |
| 1777902921 | 23.33° C | 71% | 1018.5 hPa | 0 mm | - | 143 W/m² | - |
| 1777902619 | 23.33° C | 71% | 1018.2 hPa | 0 mm | - | 157 W/m² | - |
| 1777902316 | 23.33° C | 70% | 1018.3 hPa | 0 mm | - | 172 W/m² | - |
| 1777902013 | 23.33° C | 72% | 1018.1 hPa | 0 mm | - | 145 W/m² | - |
| 1777901711 | 23.33° C | 71% | 1018 hPa | 0 mm | - | 119 W/m² | - |
| 1777901408 | 24.44° C | 70% | 1018.1 hPa | 0 mm | - | 102 W/m² | - |
| 1777901105 | 24.44° C | 71% | 1017.8 hPa | 0 mm | - | 425 W/m² | - |
| 1777900803 | 25° C | 69% | 1017.7 hPa | 0 mm | - | 393 W/m² | - |
* Rain latest hour (hover to see other rain measurements)
** Current wind speed in m/s (hover to see current wind gust speed)